Time;durP1;ratioP1;P1;durP2;ratioP2;P2;SDS_P1;SDS_P2;PMS_P1;PMS_P2;Temp;Humidity;BMP_temperature;BMP_pressure;BME280_temperature;BME280_humidity;BME280_pressure;Samples;Min_cycle;Max_cycle;Signal;HPM_P1;HPM_P2
2021/07/30 04:00:18;;;;;;;3.60;2.90;;;10.90;96.30;;;;;;5983764;23;20368;-79
2021/07/30 04:02:44;;;;;;;3.53;2.80;;;11.10;96.30;;;;;;4929032;29;20475;-78
2021/07/30 04:05:10;;;;;;;4.70;3.00;;;11.70;96.30;;;;;;4919368;29;20267;-79
2021/07/30 04:07:35;;;;;;;7.03;3.40;;;12.10;96.30;;;;;;4917233;29;20675;-79
2021/07/30 04:10:01;;;;;;;4.53;2.60;;;12.30;96.30;;;;;;4917048;29;20176;-79
2021/07/30 04:12:26;;;;;;;3.90;3.40;;;12.00;96.30;;;;;;4915385;29;20202;-79
2021/07/30 04:14:52;;;;;;;3.80;3.40;;;11.90;96.30;;;;;;4931508;29;20182;-78
2021/07/30 04:17:17;;;;;;;9.30;2.83;;;12.60;96.30;;;;;;4927246;29;20558;-78
2021/07/30 04:19:43;;;;;;;3.70;3.00;;;13.30;96.30;;;;;;4922980;29;20679;-77
2021/07/30 04:22:13;;;;;;;4.57;2.80;;;14.20;96.30;;;;;;4934986;29;20623;-78
2021/07/30 04:24:39;;;;;;;3.20;2.70;;;15.00;96.30;;;;;;4935696;29;20412;-77
2021/07/30 04:27:05;;;;;;;4.07;3.10;;;15.50;96.30;;;;;;4918592;29;20447;-77
2021/07/30 04:29:36;;;;;;;4.70;2.63;;;16.00;96.30;;;;;;4935389;29;20998;-77
2021/07/30 04:32:01;;;;;;;5.97;3.20;;;16.50;96.30;;;;;;4934138;29;20891;-77
2021/07/30 04:34:28;;;;;;;6.60;2.80;;;16.90;96.30;;;;;;4935574;29;20503;-76
2021/07/30 04:36:54;;;;;;;3.53;2.43;;;17.30;96.30;;;;;;4935541;29;20175;-77
2021/07/30 04:39:19;;;;;;;3.40;2.20;;;17.60;96.30;;;;;;4935391;29;20399;-77
2021/07/30 04:41:45;;;;;;;7.80;3.10;;;18.00;95.70;;;;;;4934338;29;20204;-77
2021/07/30 04:44:10;;;;;;;6.03;2.93;;;18.20;94.60;;;;;;4934458;29;20180;-77
2021/07/30 04:46:36;;;;;;;4.73;3.00;;;18.10;95.30;;;;;;4934530;29;20195;-77
2021/07/30 04:49:02;;;;;;;4.37;2.70;;;18.40;94.30;;;;;;4924670;29;20195;-77
2021/07/30 04:51:28;;;;;;;4.77;2.67;;;18.40;94.00;;;;;;4917619;29;20203;-76
2021/07/30 04:53:53;;;;;;;3.30;3.00;;;18.90;92.60;;;;;;4935051;29;20451;-77
2021/07/30 04:56:19;;;;;;;4.63;2.90;;;19.30;91.70;;;;;;4945037;29;20462;-77
2021/07/30 04:58:46;;;;;;;4.20;2.37;;;19.40;91.10;;;;;;4934829;29;20183;-77
2021/07/30 05:01:11;;;;;;;4.77;2.47;;;19.90;89.80;;;;;;4934146;29;20222;-77
2021/07/30 05:03:36;;;;;;;4.27;2.93;;;20.90;86.90;;;;;;4917318;29;20464;-77
2021/07/30 05:06:14;;;;;;;5.13;2.53;;;21.00;85.60;;;;;;4934296;29;20941;-77
2021/07/30 05:08:40;;;;;;;3.07;2.63;;;21.20;85.00;;;;;;4935054;29;20195;-77
2021/07/30 05:11:05;;;;;;;2.70;2.50;;;21.60;84.00;;;;;;4934334;29;20440;-76
2021/07/30 05:13:30;;;;;;;7.53;2.40;;;21.80;83.50;;;;;;4934435;29;20176;-77
2021/07/30 05:15:56;;;;;;;3.50;2.70;;;21.80;83.30;;;;;;4934656;29;20302;-78
2021/07/30 05:18:22;;;;;;;3.80;2.77;;;22.30;82.10;;;;;;4936538;29;20678;-78
2021/07/30 05:20:47;;;;;;;3.73;2.30;;;22.40;82.60;;;;;;4936987;29;20198;-78
2021/07/30 05:23:12;;;;;;;3.37;2.53;;;22.40;82.10;;;;;;4936528;29;20350;-78
2021/07/30 05:25:38;;;;;;;5.10;2.50;;;22.90;80.20;;;;;;4937352;29;20194;-78
2021/07/30 05:28:04;;;;;;;3.80;2.53;;;22.10;82.20;;;;;;4936925;29;20172;-78
2021/07/30 05:30:29;;;;;;;3.20;2.63;;;21.20;85.00;;;;;;4937183;29;20199;-78
2021/07/30 05:32:55;;;;;;;3.20;2.27;;;19.80;88.30;;;;;;4937967;29;20176;-80
2021/07/30 05:35:20;;;;;;;2.97;2.60;;;20.50;87.90;;;;;;4940234;29;20639;-78
2021/07/30 05:37:46;;;;;;;2.90;2.43;;;21.50;84.10;;;;;;4934776;29;20226;-78
2021/07/30 05:40:12;;;;;;;5.37;2.40;;;21.90;83.20;;;;;;4937057;29;20262;-78
2021/07/30 05:42:37;;;;;;;2.97;2.00;;;22.30;82.50;;;;;;4935876;29;20199;-78
2021/07/30 05:45:03;;;;;;;3.50;2.80;;;23.10;80.30;;;;;;4935899;29;20467;-78
2021/07/30 05:47:28;;;;;;;3.60;2.30;;;23.90;78.40;;;;;;4935837;29;20635;-78
2021/07/30 05:49:54;;;;;;;4.90;2.60;;;23.90;78.50;;;;;;4936163;29;20206;-78
2021/07/30 05:52:19;;;;;;;3.57;2.70;;;24.80;75.70;;;;;;4936012;29;20203;-78
2021/07/30 05:54:45;;;;;;;4.03;2.77;;;24.60;75.90;;;;;;4936049;29;20718;-78
2021/07/30 05:57:10;;;;;;;7.60;2.33;;;25.10;75.90;;;;;;4936135;29;20179;-79
2021/07/30 05:59:36;;;;;;;2.40;2.20;;;25.60;73.90;;;;;;4940040;29;20656;-79
2021/07/30 06:02:01;;;;;;;5.00;2.87;;;26.20;72.50;;;;;;4939162;29;20591;-78
2021/07/30 06:04:27;;;;;;;4.07;2.20;;;27.10;71.30;;;;;;4939537;29;20647;-77
2021/07/30 06:06:52;;;;;;;3.53;2.90;;;27.50;70.30;;;;;;4938359;29;20207;-76
2021/07/30 06:09:19;;;;;;;5.10;2.47;;;27.50;70.20;;;;;;4937827;29;20186;-76
2021/07/30 06:11:45;;;;;;;3.30;2.90;;;26.60;71.70;;;;;;4936982;29;20198;-75
2021/07/30 06:14:10;;;;;;;3.30;2.30;;;26.80;73.30;;;;;;4937798;29;20423;-76
2021/07/30 06:16:36;;;;;;;2.33;1.90;;;27.50;71.20;;;;;;4942971;29;20291;-76
2021/07/30 06:19:01;;;;;;;4.43;2.40;;;28.00;69.80;;;;;;4935371;29;20194;-76
2021/07/30 06:21:27;;;;;;;6.40;1.60;;;28.10;68.80;;;;;;4936888;29;20207;-75
2021/07/30 06:23:52;;;;;;;6.60;1.70;;;29.00;64.10;;;;;;4935832;29;20203;-76
2021/07/30 06:26:18;;;;;;;3.57;2.00;;;29.80;62.60;;;;;;4920159;29;20191;-76
2021/07/30 06:28:43;;;;;;;3.10;1.90;;;30.60;62.90;;;;;;4937755;29;20179;-76
2021/07/30 06:31:08;;;;;;;3.85;1.80;;;31.10;59.50;;;;;;4937658;29;20291;-76
2021/07/30 06:33:34;;;;;;;3.45;1.60;;;30.90;60.40;;;;;;4937079;29;20242;-76
2021/07/30 06:35:59;;;;;;;2.95;1.63;;;31.00;60.90;;;;;;4937108;29;20191;-76
2021/07/30 06:38:25;;;;;;;4.07;1.50;;;31.50;59.30;;;;;;4937338;29;20590;-76
2021/07/30 06:40:50;;;;;;;3.70;1.70;;;31.80;59.70;;;;;;4919019;29;20215;-76
2021/07/30 06:43:16;;;;;;;6.78;1.50;;;31.00;60.30;;;;;;4934817;29;20226;-76
2021/07/30 06:45:44;;;;;;;2.85;1.63;;;30.60;61.80;;;;;;4942069;29;20194;-76
2021/07/30 06:48:09;;;;;;;4.53;1.70;;;30.90;60.60;;;;;;4945959;29;20239;-79
2021/07/30 06:50:35;;;;;;;1.85;1.50;;;31.20;61.30;;;;;;4929824;29;20678;-78
2021/07/30 06:53:01;;;;;;;3.20;1.45;;;31.20;61.90;;;;;;4937813;29;20191;-79
2021/07/30 06:55:26;;;;;;;5.75;1.88;;;31.60;57.90;;;;;;4919630;29;20657;-79
2021/07/30 06:57:51;;;;;;;3.60;1.88;;;31.10;60.50;;;;;;4937083;29;20175;-78
2021/07/30 07:00:17;;;;;;;2.80;1.83;;;31.20;59.80;;;;;;4936619;29;20194;-79
2021/07/30 07:02:43;;;;;;;2.75;1.60;;;31.20;60.90;;;;;;4919171;29;20222;-79
2021/07/30 07:05:09;;;;;;;2.30;1.42;;;31.40;60.30;;;;;;4938443;29;20213;-78
2021/07/30 07:07:34;;;;;;;2.53;1.67;;;31.00;61.10;;;;;;4938442;29;20199;-79
2021/07/30 07:09:59;;;;;;;2.90;1.40;;;31.10;61.30;;;;;;4938364;29;20663;-79
2021/07/30 07:12:25;;;;;;;7.43;1.77;;;31.10;61.80;;;;;;4937594;29;20211;-79
2021/07/30 07:14:50;;;;;;;2.95;1.65;;;31.50;62.80;;;;;;4938179;29;20214;-78
2021/07/30 07:17:18;;;;;;;4.97;1.60;;;31.50;62.90;;;;;;4936824;29;20263;-78
2021/07/30 07:19:44;;;;;;;3.72;1.73;;;31.10;60.50;;;;;;4936988;29;20175;-78
2021/07/30 07:22:09;;;;;;;6.10;1.80;;;31.60;59.30;;;;;;4936141;29;20225;-78
2021/07/30 07:24:37;;;;;;;3.72;1.67;;;31.30;58.40;;;;;;4919771;29;20222;-77
2021/07/30 07:27:04;;;;;;;3.92;1.58;;;30.80;58.60;;;;;;4937137;29;20197;-78
2021/07/30 07:29:31;;;;;;;3.72;1.52;;;30.10;58.40;;;;;;4936831;29;20171;-80
2021/07/30 07:31:57;;;;;;;2.75;1.50;;;30.70;60.90;;;;;;4937401;29;20222;-78
2021/07/30 07:34:23;;;;;;;6.45;1.88;;;31.50;60.80;;;;;;4936660;29;20183;-78
2021/07/30 07:36:48;;;;;;;8.57;2.05;;;31.50;61.20;;;;;;4936724;29;20214;-79
2021/07/30 07:39:13;;;;;;;5.13;1.45;;;31.60;61.60;;;;;;4919530;29;20198;-78
2021/07/30 07:41:39;;;;;;;2.78;1.67;;;30.40;62.60;;;;;;4936391;29;20565;-78
2021/07/30 07:44:05;;;;;;;5.45;1.90;;;30.70;60.60;;;;;;4936454;29;20206;-78
2021/07/30 07:46:31;;;;;;;3.03;1.63;;;30.30;63.50;;;;;;4936367;29;20681;-79
2021/07/30 07:48:56;;;;;;;3.80;1.88;;;30.70;64.10;;;;;;4936350;29;20210;-81
2021/07/30 07:51:22;;;;;;;5.25;1.95;;;31.60;59.30;;;;;;4935369;29;20607;-77
2021/07/30 07:53:47;;;;;;;3.97;1.70;;;31.00;60.40;;;;;;4934793;29;20678;-77
2021/07/30 07:56:13;;;;;;;3.03;2.00;;;31.20;61.80;;;;;;4918678;29;20250;-77
2021/07/30 07:58:38;;;;;;;3.00;1.60;;;31.60;61.70;;;;;;4935578;29;20191;-76
2021/07/30 08:01:04;;;;;;;1.83;1.58;;;31.40;62.70;;;;;;4929951;29;20206;-77
2021/07/30 08:03:29;;;;;;;4.18;1.70;;;31.20;60.00;;;;;;4954509;29;20213;-77
2021/07/30 08:05:55;;;;;;;4.20;2.00;;;31.30;64.10;;;;;;4936768;29;20194;-78
2021/07/30 08:08:20;;;;;;;4.30;2.08;;;31.10;63.50;;;;;;4936048;29;20199;-78
2021/07/30 08:10:47;;;;;;;5.50;2.15;;;32.00;57.30;;;;;;4936011;29;20199;-78
2021/07/30 08:13:12;;;;;;;4.82;1.70;;;32.50;56.10;;;;;;4935601;29;20199;-77
2021/07/30 08:15:41;;;;;;;4.70;2.33;;;30.40;60.30;;;;;;4936113;29;20171;-77
2021/07/30 08:18:06;;;;;;;2.27;1.83;;;30.20;63.80;;;;;;4935135;29;20182;-78
2021/07/30 08:20:32;;;;;;;2.60;1.60;;;30.50;63.90;;;;;;4935693;29;20441;-77
2021/07/30 08:22:58;;;;;;;4.27;2.03;;;30.50;64.60;;;;;;4934580;29;20202;-78
2021/07/30 08:25:23;;;;;;;3.60;1.90;;;30.10;65.40;;;;;;4935501;29;20179;-77
2021/07/30 08:27:49;;;;;;;2.70;1.73;;;29.80;65.70;;;;;;4918299;29;20270;-77
2021/07/30 08:30:14;;;;;;;3.70;2.37;;;29.00;66.40;;;;;;4935369;29;20195;-77
2021/07/30 08:32:40;;;;;;;5.43;1.50;;;29.30;65.90;;;;;;4943286;29;20266;-79
2021/07/30 08:35:06;;;;;;;2.03;1.83;;;29.30;67.60;;;;;;4935525;29;20651;-78
2021/07/30 08:37:31;;;;;;;5.57;1.73;;;29.20;65.50;;;;;;4935513;29;20175;-77
2021/07/30 08:39:57;;;;;;;2.83;1.60;;;29.40;64.40;;;;;;4935366;29;20450;-77
2021/07/30 08:42:22;;;;;;;3.17;1.80;;;29.10;69.80;;;;;;4917831;29;20705;-78
2021/07/30 08:44:48;;;;;;;2.90;2.10;;;28.80;65.20;;;;;;4935617;29;20174;-77
2021/07/30 08:47:14;;;;;;;2.93;1.60;;;28.60;66.00;;;;;;4935628;29;20172;-77
2021/07/30 08:49:40;;;;;;;2.10;1.70;;;28.20;66.70;;;;;;4935433;29;20222;-77
2021/07/30 08:52:10;;;;;;;4.47;1.97;;;28.60;69.60;;;;;;4934769;29;20798;-75
2021/07/30 08:54:37;;;;;;;7.57;1.87;;;28.50;67.60;;;;;;4947304;29;20415;-76
2021/07/30 08:57:10;;;;;;;4.50;1.77;;;28.00;68.00;;;;;;4935373;29;20447;-76
2021/07/30 08:59:39;;;;;;;4.63;1.77;;;28.20;70.70;;;;;;4934819;29;20423;-77
2021/07/30 09:02:05;;;;;;;2.10;1.90;;;28.40;69.40;;;;;;4936913;29;20457;-77
2021/07/30 09:04:31;;;;;;;3.33;1.60;;;28.40;70.60;;;;;;4935285;29;20446;-77
2021/07/30 09:06:58;;;;;;;2.30;1.47;;;28.30;69.20;;;;;;4935360;29;20951;-77
2021/07/30 09:09:24;;;;;;;6.90;1.87;;;28.00;69.70;;;;;;4917818;29;20186;-77
2021/07/30 09:11:54;;;;;;;9.70;1.97;;;27.50;69.50;;;;;;4934597;29;20431;-77
2021/07/30 09:14:36;;;;;;;9.47;1.80;;;27.80;66.20;;;;;;4934647;29;20423;-77
2021/07/30 09:17:03;;;;;;;4.43;2.40;;;27.80;70.30;;;;;;4935119;29;20426;-77
2021/07/30 09:19:28;;;;;;;2.97;1.83;;;27.60;68.60;;;;;;4934742;29;20502;-77
2021/07/30 09:22:12;;;;;;;2.93;1.77;;;27.40;70.40;;;;;;4941115;29;20521;-79
2021/07/30 09:24:40;;;;;;;7.33;2.00;;;27.50;71.10;;;;;;4955547;29;20573;-78
2021/07/30 09:27:08;;;;;;;3.10;2.13;;;27.80;69.50;;;;;;4954689;29;20414;-79
2021/07/30 09:29:34;;;;;;;3.40;1.90;;;28.50;68.60;;;;;;4937059;29;20427;-79
2021/07/30 09:32:18;;;;;;;3.27;1.97;;;28.20;68.50;;;;;;4935423;29;20435;-79
2021/07/30 09:34:47;;;;;;;2.30;2.07;;;27.60;68.30;;;;;;4935325;29;20443;-78
2021/07/30 09:37:23;;;;;;;4.23;2.17;;;27.10;73.70;;;;;;4918006;29;20834;-79
2021/07/30 09:39:53;;;;;;;3.87;1.97;;;27.10;75.80;;;;;;4934438;29;20466;-79
2021/07/30 09:42:20;;;;;;;5.43;2.10;;;27.50;72.90;;;;;;4934866;29;20451;-79
2021/07/30 09:44:53;;;;;;;3.00;1.70;;;27.80;73.00;;;;;;4935067;29;20579;-79
2021/07/30 09:47:21;;;;;;;5.00;1.80;;;27.50;68.90;;;;;;4934821;29;20407;-79
2021/07/30 09:49:50;;;;;;;7.83;2.33;;;27.90;76.00;;;;;;4934421;29;20426;-79
2021/07/30 09:52:29;;;;;;;2.77;1.90;;;27.90;72.40;;;;;;4934514;29;20473;-79
2021/07/30 09:54:59;;;;;;;3.23;1.97;;;28.00;68.70;;;;;;4934646;29;20433;-79
2021/07/30 09:57:28;;;;;;;3.77;2.00;;;27.90;77.40;;;;;;4918775;29;20422;-80
2021/07/30 10:00:05;;;;;;;3.70;1.90;;;28.30;73.30;;;;;;4934922;29;20776;-79
2021/07/30 10:02:33;;;;;;;3.70;1.90;;;28.50;73.70;;;;;;4933989;29;20470;-80
2021/07/30 10:04:59;;;;;;;2.10;1.90;;;28.70;68.20;;;;;;4934675;29;20530;-79
2021/07/30 10:07:26;;;;;;;5.70;2.07;;;28.50;72.90;;;;;;4934850;29;20403;-78
2021/07/30 10:12:42;;;;;;;3.17;2.03;;;27.70;70.50;;;;;;4934810;29;20449;-79
2021/07/30 10:15:08;;;;;;;7.00;1.70;;;27.70;73.80;;;;;;4935787;29;20399;-80
2021/07/30 10:17:36;;;;;;;2.30;1.70;;;27.60;74.60;;;;;;4937056;29;20512;-79
2021/07/30 10:20:07;;;;;;;4.20;1.70;;;28.10;77.30;;;;;;4945394;29;20513;-80
2021/07/30 13:41:47;;;;;;;3.73;2.40;;;29.10;68.70;;;;;;4953238;28;20839;-82
2021/07/30 13:44:13;;;;;;;2.20;2.00;;;29.50;68.10;;;;;;4954604;29;20489;-82
2021/07/30 13:46:38;;;;;;;2.77;2.30;;;28.90;67.40;;;;;;4954427;29;20202;-82
2021/07/30 13:49:04;;;;;;;8.10;2.30;;;28.90;70.30;;;;;;4954457;29;20177;-82
2021/07/30 13:51:29;;;;;;;4.17;2.80;;;29.00;68.20;;;;;;4936746;29;20198;-81
2021/07/30 13:53:55;;;;;;;4.57;2.70;;;29.30;69.10;;;;;;4937771;29;20759;-81
2021/07/30 13:56:20;;;;;;;3.70;2.30;;;29.00;65.40;;;;;;4954901;29;20178;-81
2021/07/30 13:58:46;;;;;;;4.73;2.33;;;29.10;72.20;;;;;;4937963;28;20277;-82
2021/07/30 14:01:17;;;;;;;3.87;2.00;;;29.20;68.10;;;;;;4953800;29;20832;-81
2021/07/30 14:03:42;;;;;;;4.10;2.40;;;29.30;64.90;;;;;;4952962;29;20289;-82
2021/07/30 14:06:09;;;;;;;3.03;2.20;;;29.10;65.70;;;;;;4954827;29;20496;-81
2021/07/30 14:08:35;;;;;;;6.83;2.80;;;29.10;73.10;;;;;;4954811;29;20167;-81
2021/07/30 14:11:00;;;;;;;2.90;2.23;;;29.10;68.50;;;;;;4953483;29;20501;-81
2021/07/30 14:13:25;;;;;;;6.50;2.80;;;29.10;68.80;;;;;;4954272;29;20193;-81
2021/07/30 14:15:51;;;;;;;2.37;2.17;;;29.10;69.00;;;;;;4953443;29;20178;-83
2021/07/30 14:18:16;;;;;;;6.03;2.60;;;29.20;67.80;;;;;;4953929;29;20187;-80
2021/07/30 14:20:42;;;;;;;3.73;2.17;;;29.30;65.80;;;;;;4941858;29;20734;-80
2021/07/30 14:23:09;;;;;;;2.50;2.30;;;29.70;68.70;;;;;;4951117;29;20205;-80
2021/07/30 14:25:34;;;;;;;3.20;2.67;;;30.00;67.00;;;;;;4956897;29;20650;-79
2021/07/30 14:28:00;;;;;;;3.07;2.67;;;29.60;66.90;;;;;;4957564;29;20992;-80
2021/07/30 14:30:25;;;;;;;3.70;2.63;;;29.30;70.30;;;;;;4956806;29;20209;-81
2021/07/30 14:32:50;;;;;;;2.60;2.40;;;29.20;70.10;;;;;;4955672;29;20178;-79
2021/07/30 14:35:16;;;;;;;3.57;2.60;;;29.50;70.90;;;;;;4958477;29;20178;-79
2021/07/30 14:37:41;;;;;;;6.37;2.43;;;29.70;70.90;;;;;;4964326;29;20186;-79
2021/07/30 14:40:07;;;;;;;3.13;2.17;;;30.00;69.40;;;;;;4964393;29;20214;-80
2021/07/30 14:42:34;;;;;;;4.00;2.30;;;30.10;70.60;;;;;;4964592;29;20209;-80
2021/07/30 14:45:05;;;;;;;5.30;2.60;;;29.90;65.40;;;;;;4966836;29;21056;-80
2021/07/30 14:47:31;;;;;;;2.60;2.40;;;30.00;72.70;;;;;;4951072;29;20410;-81
2021/07/30 14:49:56;;;;;;;3.50;2.20;;;29.90;69.40;;;;;;4961053;29;20406;-81
2021/07/30 14:52:22;;;;;;;4.57;2.50;;;29.60;68.40;;;;;;4959719;29;20441;-80
2021/07/30 14:54:47;;;;;;;2.80;2.50;;;29.40;68.70;;;;;;4959597;29;20185;-81
2021/07/30 14:57:13;;;;;;;4.53;2.83;;;29.10;67.40;;;;;;4958459;29;20178;-80
2021/07/30 14:59:43;;;;;;;2.80;2.50;;;29.10;73.60;;;;;;4960565;29;20206;-80
2021/07/30 15:02:08;;;;;;;3.47;2.40;;;29.00;72.10;;;;;;4940040;29;20195;-80
2021/07/30 15:04:35;;;;;;;4.27;2.40;;;28.80;71.00;;;;;;4942761;29;20451;-79
2021/07/30 15:07:00;;;;;;;7.37;2.50;;;29.30;69.30;;;;;;4959347;29;20167;-80
2021/07/30 15:09:26;;;;;;;3.57;2.63;;;29.70;72.30;;;;;;4961051;29;20508;-81
2021/07/30 15:11:51;;;;;;;6.70;2.40;;;29.60;68.60;;;;;;4945618;29;20206;-81
2021/07/30 15:14:17;;;;;;;7.43;2.20;;;29.30;67.70;;;;;;4939268;29;20655;-80
2021/07/30 15:16:44;;;;;;;6.07;3.03;;;29.40;66.40;;;;;;4941739;29;20223;-81
2021/07/30 15:19:11;;;;;;;7.43;3.10;;;29.30;65.00;;;;;;4938701;28;20206;-81
2021/07/30 15:21:37;;;;;;;5.07;2.00;;;29.20;71.70;;;;;;4953169;28;20454;-80
2021/07/30 15:24:04;;;;;;;3.17;2.30;;;29.60;69.20;;;;;;4956907;29;20465;-80
2021/07/30 15:26:29;;;;;;;2.50;2.30;;;29.60;66.20;;;;;;4960180;29;20187;-79
2021/07/30 15:28:59;;;;;;;3.23;2.23;;;29.20;66.10;;;;;;4959672;29;20469;-79
2021/07/30 15:31:25;;;;;;;3.27;2.40;;;29.00;71.40;;;;;;4941462;29;20209;-80
2021/07/30 15:33:53;;;;;;;2.40;2.20;;;29.00;72.40;;;;;;4957322;29;20418;-79
2021/07/30 15:36:19;;;;;;;2.30;2.10;;;29.00;72.20;;;;;;4962460;29;20178;-82
2021/07/30 15:38:49;;;;;;;2.50;2.17;;;29.00;65.90;;;;;;4945311;29;20418;-81
2021/07/30 15:41:19;;;;;;;7.57;2.73;;;27.80;66.20;;;;;;4957672;29;20290;-79
2021/07/30 15:43:45;;;;;;;7.43;2.80;;;28.00;71.70;;;;;;4956672;29;20791;-79
2021/07/30 15:46:11;;;;;;;4.40;2.47;;;28.50;71.80;;;;;;4943261;29;20512;-79
2021/07/30 15:48:38;;;;;;;7.90;2.50;;;28.80;64.80;;;;;;4942069;29;20549;-79
2021/07/30 15:51:04;;;;;;;2.97;2.60;;;29.00;64.90;;;;;;4942575;29;20434;-80
2021/07/30 15:53:30;;;;;;;2.87;2.50;;;29.40;68.80;;;;;;4940539;29;20915;-81
2021/07/30 15:55:56;;;;;;;4.73;2.60;;;29.40;67.20;;;;;;4941081;29;20478;-78
2021/07/30 15:58:21;;;;;;;3.67;3.17;;;29.50;70.20;;;;;;4938552;29;20239;-78
2021/07/30 16:00:47;;;;;;;3.73;2.50;;;29.20;68.40;;;;;;4938489;29;20206;-80
2021/07/30 16:03:13;;;;;;;5.60;2.23;;;29.20;68.20;;;;;;4931502;29;20210;-79
2021/07/30 16:05:38;;;;;;;7.50;2.37;;;29.00;69.30;;;;;;4941869;29;20186;-79
2021/07/30 16:08:04;;;;;;;3.17;2.30;;;29.00;68.90;;;;;;4960151;29;20185;-81
2021/07/30 16:10:29;;;;;;;4.43;2.57;;;28.90;69.60;;;;;;4947639;29;20187;-80
2021/07/30 16:12:55;;;;;;;2.73;2.53;;;28.60;72.50;;;;;;4939605;29;20191;-81
2021/07/30 16:15:24;;;;;;;3.73;2.50;;;28.60;72.90;;;;;;4939481;29;20174;-81
2021/07/30 16:17:49;;;;;;;2.80;2.37;;;28.80;72.90;;;;;;4948134;29;20196;-79
2021/07/30 16:22:41;;;;;;;3.30;2.27;;;29.00;72.10;;;;;;5450251;23;20240;-79
2021/07/30 16:25:08;;;;;;;6.60;2.40;;;28.90;70.70;;;;;;4959904;28;20213;-79
2021/07/30 16:27:34;;;;;;;3.33;3.03;;;29.10;70.30;;;;;;4976519;28;20435;-81
2021/07/30 16:30:00;;;;;;;3.70;2.90;;;28.80;71.70;;;;;;4978339;28;20473;-79
2021/07/30 16:32:25;;;;;;;2.90;2.70;;;28.40;69.80;;;;;;4976881;28;20198;-79
2021/07/30 16:34:51;;;;;;;2.30;2.10;;;28.20;71.30;;;;;;4978096;28;20540;-79
2021/07/30 16:37:19;;;;;;;5.03;2.40;;;27.90;71.90;;;;;;4977282;28;20230;-80
2021/07/30 16:39:45;;;;;;;3.30;2.63;;;27.80;74.90;;;;;;4979368;28;20185;-79
2021/07/30 16:42:10;;;;;;;3.57;2.70;;;27.70;74.90;;;;;;4977647;28;20441;-81
2021/07/30 16:44:36;;;;;;;2.67;2.30;;;27.50;74.70;;;;;;4960755;28;20213;-79
2021/07/30 16:47:02;;;;;;;2.87;2.57;;;27.50;73.00;;;;;;4977862;28;20178;-80
2021/07/30 16:49:28;;;;;;;3.87;2.40;;;27.50;74.00;;;;;;4981022;28;20181;-79
2021/07/30 16:51:55;;;;;;;2.80;2.53;;;27.40;70.10;;;;;;4959649;28;20441;-79
2021/07/30 16:54:21;;;;;;;6.73;2.70;;;27.30;73.70;;;;;;4976322;28;20661;-79
2021/07/30 16:56:48;;;;;;;3.80;2.50;;;27.20;73.00;;;;;;4962555;28;20417;-80
2021/07/30 16:59:13;;;;;;;10.30;5.87;;;27.10;71.60;;;;;;4981132;28;20174;-79
2021/07/30 17:01:39;;;;;;;156.40;141.47;;;26.80;74.10;;;;;;4960018;28;20429;-82
2021/07/30 17:04:04;;;;;;;284.37;254.93;;;26.90;74.90;;;;;;4977874;28;20236;-80
2021/07/30 17:06:31;;;;;;;7.23;6.53;;;26.90;76.20;;;;;;4979824;28;20174;-83
2021/07/30 17:08:57;;;;;;;6.83;3.23;;;26.80;75.50;;;;;;4973926;28;20605;-83
2021/07/30 17:11:23;;;;;;;8.20;2.73;;;26.70;74.10;;;;;;4957235;28;20964;-85
2021/07/30 17:13:49;;;;;;;24.70;12.93;;;26.60;73.60;;;;;;4941819;29;20428;-84
2021/07/30 17:16:19;;;;;;;8.53;5.80;;;26.50;76.10;;;;;;4953949;29;20190;-83
2021/07/30 17:18:46;;;;;;;5.60;3.80;;;26.40;75.60;;;;;;4938711;29;20433;-83
2021/07/30 17:21:11;;;;;;;4.10;3.37;;;26.30;75.50;;;;;;4935923;29;20454;-83
2021/07/30 17:23:37;;;;;;;6.33;4.53;;;26.20;76.70;;;;;;4918090;29;20558;-84
2021/07/30 17:26:03;;;;;;;3.30;2.73;;;26.10;77.80;;;;;;4936376;29;20174;-81
2021/07/30 17:28:29;;;;;;;196.53;176.27;;;26.10;79.60;;;;;;4935633;29;20198;-83
2021/07/30 17:30:55;;;;;;;9.90;8.30;;;26.00;76.70;;;;;;4935909;29;20561;-82
2021/07/30 17:33:20;;;;;;;5.40;3.30;;;25.90;78.80;;;;;;4935999;29;20183;-83
2021/07/30 17:35:46;;;;;;;22.67;15.70;;;25.80;79.40;;;;;;4937870;29;20552;-82
2021/07/30 17:38:11;;;;;;;5.33;4.10;;;25.70;82.20;;;;;;4919759;29;20595;-82
2021/07/30 17:40:37;;;;;;;5.07;3.10;;;25.70;83.90;;;;;;4937685;29;20199;-81
2021/07/30 17:43:03;;;;;;;3.43;3.13;;;25.70;85.20;;;;;;4936932;29;20195;-82
2021/07/30 17:45:28;;;;;;;6.80;4.03;;;25.60;88.00;;;;;;4937690;29;20589;-82
2021/07/30 17:47:53;;;;;;;5.87;3.70;;;25.50;86.30;;;;;;4937311;29;20209;-83
2021/07/30 17:50:19;;;;;;;5.90;3.67;;;25.40;86.10;;;;;;4937401;29;20650;-82
2021/07/30 17:52:44;;;;;;;7.03;4.30;;;25.10;86.30;;;;;;4952834;29;20218;-83
2021/07/30 17:55:10;;;;;;;8.03;3.60;;;24.90;85.00;;;;;;4941417;29;20551;-84
2021/07/30 17:57:35;;;;;;;6.67;3.73;;;24.70;84.40;;;;;;4941816;29;20182;-84
2021/07/30 18:00:02;;;;;;;4.93;3.17;;;24.50;78.80;;;;;;4959081;29;20185;-84
2021/07/30 18:02:28;;;;;;;3.67;3.27;;;24.40;82.90;;;;;;4958592;29;20551;-84
2021/07/30 18:04:53;;;;;;;4.10;2.80;;;24.20;85.70;;;;;;4942581;29;20434;-81
2021/07/30 18:07:19;;;;;;;3.10;2.80;;;23.90;88.10;;;;;;4958558;29;20170;-86
2021/07/30 18:09:44;;;;;;;3.43;2.80;;;23.70;87.70;;;;;;4961166;29;20171;-81
2021/07/30 18:12:10;;;;;;;5.37;2.97;;;23.60;88.90;;;;;;4944207;29;20246;-85
2021/07/30 18:14:36;;;;;;;3.13;2.77;;;23.40;90.10;;;;;;4942445;29;20179;-85
2021/07/30 18:17:02;;;;;;;5.47;3.00;;;23.20;91.70;;;;;;4962111;29;20674;-81
2021/07/30 18:19:27;;;;;;;3.13;2.47;;;22.90;92.40;;;;;;4951662;29;20227;-81
2021/07/30 18:21:53;;;;;;;6.17;3.00;;;22.70;93.10;;;;;;4923525;29;20286;-80
2021/07/30 18:24:19;;;;;;;5.93;4.17;;;22.50;93.40;;;;;;4942320;29;20187;-81
2021/07/30 18:26:45;;;;;;;6.23;3.57;;;22.30;92.00;;;;;;4925721;29;20576;-81
2021/07/30 18:29:11;;;;;;;8.97;3.57;;;22.00;93.00;;;;;;4941287;29;20415;-81
2021/07/30 18:31:37;;;;;;;4.87;3.60;;;21.80;92.30;;;;;;4941283;29;20278;-81
2021/07/30 18:34:03;;;;;;;6.63;3.70;;;21.60;91.90;;;;;;4954177;29;20461;-81
2021/07/30 18:36:30;;;;;;;5.57;3.80;;;21.50;91.70;;;;;;4959682;29;20414;-81
2021/07/30 18:38:57;;;;;;;10.53;3.20;;;21.40;91.10;;;;;;4958771;29;20175;-80
2021/07/30 18:41:23;;;;;;;4.00;2.73;;;21.30;91.40;;;;;;4959544;29;20949;-79
2021/07/30 18:43:48;;;;;;;7.10;3.07;;;21.10;90.60;;;;;;4941041;29;20458;-81
2021/07/30 18:46:14;;;;;;;6.63;3.57;;;21.00;93.70;;;;;;4941214;29;20578;-80
2021/07/30 18:48:40;;;;;;;3.30;2.60;;;20.70;95.20;;;;;;4940196;29;20266;-82
2021/07/30 18:51:07;;;;;;;2.97;2.67;;;20.40;96.30;;;;;;4940501;29;20199;-80
2021/07/30 18:53:33;;;;;;;3.00;2.70;;;20.20;95.90;;;;;;4957745;29;20182;-79
2021/07/30 18:55:58;;;;;;;6.40;2.90;;;20.00;96.30;;;;;;4951960;29;20526;-83
2021/07/30 18:58:24;;;;;;;3.30;2.50;;;19.90;96.30;;;;;;4948628;29;20838;-80
2021/07/30 19:00:50;;;;;;;4.73;2.97;;;19.80;96.30;;;;;;4937713;29;20199;-81
2021/07/30 19:03:16;;;;;;;6.10;3.20;;;19.70;96.30;;;;;;4958260;29;20261;-78
2021/07/30 19:05:41;;;;;;;4.57;2.77;;;19.50;96.30;;;;;;4956192;28;20418;-79
2021/07/30 19:08:07;;;;;;;3.67;3.03;;;19.40;96.30;;;;;;4939905;29;20222;-78
2021/07/30 19:10:32;;;;;;;4.07;2.90;;;19.40;96.30;;;;;;4956581;29;20195;-80
2021/07/30 19:13:03;;;;;;;4.00;3.00;;;19.30;96.30;;;;;;4957237;29;20186;-82
2021/07/30 19:15:29;;;;;;;7.83;3.20;;;19.30;96.30;;;;;;4940968;29;20175;-79
2021/07/30 19:17:55;;;;;;;3.50;3.00;;;19.20;96.30;;;;;;4957503;29;20458;-81
2021/07/30 19:20:20;;;;;;;4.70;3.23;;;19.20;96.30;;;;;;4940819;29;20426;-79
2021/07/30 19:22:46;;;;;;;7.30;3.17;;;19.20;96.30;;;;;;4957949;29;20701;-79
2021/07/30 19:25:11;;;;;;;7.50;3.40;;;19.00;96.30;;;;;;4958608;29;20256;-80
2021/07/30 19:27:37;;;;;;;4.87;2.77;;;18.90;96.30;;;;;;4958466;29;20253;-80
2021/07/30 19:30:03;;;;;;;3.30;3.00;;;18.70;96.30;;;;;;4941617;29;20250;-80
2021/07/30 19:32:29;;;;;;;4.67;2.63;;;18.70;96.30;;;;;;4955471;29;20195;-82
2021/07/30 19:34:54;;;;;;;4.53;3.00;;;18.70;96.30;;;;;;4942481;29;20274;-81
2021/07/30 19:37:19;;;;;;;5.00;3.30;;;18.80;96.30;;;;;;4956827;29;20226;-81
2021/07/30 19:39:45;;;;;;;2.97;2.77;;;18.70;96.30;;;;;;4957890;29;20226;-83
2021/07/30 19:42:10;;;;;;;3.87;2.90;;;18.70;96.30;;;;;;4938992;29;20208;-81
2021/07/30 19:44:36;;;;;;;5.50;3.00;;;18.60;96.30;;;;;;4946081;29;20258;-82
2021/07/30 19:47:02;;;;;;;5.97;2.50;;;18.50;96.30;;;;;;4938820;29;20172;-82
2021/07/30 19:49:28;;;;;;;6.60;3.40;;;18.50;96.30;;;;;;4921207;29;20187;-83
2021/07/30 19:51:53;;;;;;;3.50;2.93;;;18.50;96.30;;;;;;4937504;29;20207;-83
2021/07/30 19:54:19;;;;;;;3.37;3.07;;;18.50;96.30;;;;;;4938260;29;20172;-80
2021/07/30 19:56:44;;;;;;;5.60;2.80;;;18.60;96.30;;;;;;4936716;29;20283;-81
2021/07/30 19:59:10;;;;;;;6.43;2.67;;;18.70;96.30;;;;;;4935983;29;20213;-80
2021/07/30 20:01:36;;;;;;;7.03;2.90;;;18.60;96.30;;;;;;4953214;29;20246;-83
2021/07/30 20:04:01;;;;;;;8.80;3.40;;;18.60;96.30;;;;;;4930908;29;20207;-82